Time;durP1;ratioP1;P1;durP2;ratioP2;P2;SDS_P1;SDS_P2;PMS_P1;PMS_P2;Temp;Humidity;BMP_temperature;BMP_pressure;BME280_temperature;BME280_humidity;BME280_pressure;Samples;Min_cycle;Max_cycle;Signal;HPM_P1;HPM_P2
2022/12/07 00:00:43;;;;;;;51.08;24.58;;;;;;;;;;6237084;28;20386;-72
2022/12/07 00:03:44;;;;;;;68.60;33.75;;;;;;;;;;6235779;28;20345;-73
2022/12/07 00:06:46;;;;;;;35.42;17.50;;;;;;;;;;6236925;28;20020;-72
2022/12/07 00:09:46;;;;;;;65.90;27.25;;;;;;;;;;6236927;28;20543;-73
2022/12/07 00:12:46;;;;;;;38.25;19.30;;;;;;;;;;6234383;28;20026;-73
2022/12/07 00:15:46;;;;;;;57.97;25.37;;;;;;;;;;6236024;28;20018;-73
2022/12/07 00:18:46;;;;;;;58.55;26.05;;;;;;;;;;6236088;28;20432;-73
2022/12/07 00:21:47;;;;;;;64.13;32.37;;;;;;;;;;6236335;28;20013;-73
2022/12/07 00:24:47;;;;;;;72.03;31.83;;;;;;;;;;6237080;28;20013;-73
2022/12/07 00:27:47;;;;;;;69.53;30.67;;;;;;;;;;6233870;28;20532;-73
2022/12/07 00:30:47;;;;;;;62.10;29.83;;;;;;;;;;6232569;28;20014;-72
2022/12/07 00:33:48;;;;;;;38.45;17.98;;;;;;;;;;6236442;28;20060;-73
2022/12/07 00:36:48;;;;;;;46.83;22.50;;;;;;;;;;6238073;28;20076;-74
2022/12/07 00:39:49;;;;;;;38.17;19.10;;;;;;;;;;6230751;28;20427;-73
2022/12/07 00:42:49;;;;;;;45.80;21.47;;;;;;;;;;6231988;28;20021;-73
2022/12/07 00:45:49;;;;;;;45.05;22.67;;;;;;;;;;6232930;28;20009;-73
2022/12/07 00:48:50;;;;;;;36.63;18.87;;;;;;;;;;6233972;28;20714;-73
2022/12/07 00:51:50;;;;;;;41.83;21.00;;;;;;;;;;6240012;28;20028;-73
2022/12/07 00:54:51;;;;;;;44.83;22.60;;;;;;;;;;6231449;28;20433;-73
2022/12/07 00:57:51;;;;;;;43.17;19.57;;;;;;;;;;6240742;28;20041;-73
2022/12/07 01:00:51;;;;;;;47.45;24.00;;;;;;;;;;6238779;28;20056;-73
2022/12/07 01:03:51;;;;;;;55.08;23.33;;;;;;;;;;6241005;28;20379;-72
2022/12/07 01:06:51;;;;;;;46.97;22.27;;;;;;;;;;6239631;28;20282;-73
2022/12/07 01:09:52;;;;;;;53.42;23.00;;;;;;;;;;6240179;28;20535;-72
2022/12/07 01:12:52;;;;;;;45.93;22.63;;;;;;;;;;6234510;28;20037;-73
2022/12/07 01:15:56;;;;;;;42.37;20.67;;;;;;;;;;6239847;28;20553;-72
2022/12/07 01:18:56;;;;;;;42.88;19.63;;;;;;;;;;6234139;28;20490;-73
2022/12/07 01:21:57;;;;;;;37.13;17.57;;;;;;;;;;6240311;28;20618;-73
2022/12/07 01:24:57;;;;;;;50.70;26.17;;;;;;;;;;6241077;28;20092;-73
2022/12/07 01:27:57;;;;;;;66.90;34.17;;;;;;;;;;6239896;28;20524;-73
2022/12/07 01:30:57;;;;;;;60.53;26.47;;;;;;;;;;6235119;28;20051;-74
2022/12/07 01:33:58;;;;;;;62.83;26.50;;;;;;;;;;6246404;28;20056;-72
2022/12/07 01:36:58;;;;;;;52.00;23.07;;;;;;;;;;6239659;28;20104;-72
2022/12/07 01:39:59;;;;;;;48.78;21.45;;;;;;;;;;6239846;28;20006;-72
2022/12/07 01:42:59;;;;;;;51.92;21.05;;;;;;;;;;6238406;28;20036;-73
2022/12/07 01:46:00;;;;;;;41.88;22.70;;;;;;;;;;6239898;28;20009;-73
2022/12/07 01:49:01;;;;;;;54.93;24.40;;;;;;;;;;6233188;28;20021;-73
2022/12/07 01:52:09;;;;;;;30.13;18.20;;;;;;;;;;6239930;28;20067;-73
2022/12/07 01:55:11;;;;;;;50.17;24.02;;;;;;;;;;6233185;28;20104;-72
2022/12/07 01:58:12;;;;;;;;;;;;;;;;;;6232435;28;20056;-73
2022/12/07 02:01:12;;;;;;;49.70;25.80;;;;;;;;;;6239775;28;19909;-72
2022/12/07 02:04:12;;;;;;;56.73;26.20;;;;;;;;;;6234539;28;20101;-72
2022/12/07 02:07:14;;;;;;;53.33;25.40;;;;;;;;;;6239208;28;20018;-73
2022/12/07 02:10:14;;;;;;;;;;;;;;;;;;6238349;28;20052;-73
2022/12/07 02:13:34;;;;;;;47.25;20.23;;;;;;;;;;6239069;28;19912;-73
2022/12/07 02:16:34;;;;;;;48.55;23.65;;;;;;;;;;6238824;28;20243;-73
2022/12/07 02:19:40;;;;;;;60.20;23.20;;;;;;;;;;6238997;28;20337;-72
2022/12/07 02:22:51;;;;;;;47.97;23.73;;;;;;;;;;6236632;28;20086;-72
2022/12/07 02:26:00;;;;;;;34.85;18.65;;;;;;;;;;6237546;28;20016;-72
2022/12/07 02:29:01;;;;;;;56.50;23.00;;;;;;;;;;6232868;28;20021;-73
2022/12/07 02:32:10;;;;;;;44.37;19.70;;;;;;;;;;6234964;28;20021;-73
2022/12/07 02:35:19;;;;;;;36.45;19.20;;;;;;;;;;6235324;28;20022;-72
2022/12/07 02:38:24;;;;;;;53.10;23.52;;;;;;;;;;6239993;28;20513;-73
2022/12/07 02:41:27;;;;;;;36.20;19.08;;;;;;;;;;6244614;28;20013;-73
2022/12/07 02:44:28;;;;;;;58.78;25.55;;;;;;;;;;6236205;28;20047;-72
2022/12/07 02:47:29;;;;;;;54.87;24.33;;;;;;;;;;6235368;28;20588;-72
2022/12/07 02:50:29;;;;;;;54.75;22.98;;;;;;;;;;6236895;28;20104;-72
2022/12/07 02:53:33;;;;;;;54.40;23.30;;;;;;;;;;6237228;28;20023;-73
2022/12/07 02:56:43;;;;;;;52.83;24.42;;;;;;;;;;6229498;28;20025;-73
2022/12/07 02:59:58;;;;;;;51.28;23.30;;;;;;;;;;6232811;28;20029;-72
2022/12/07 03:03:09;;;;;;;45.10;21.20;;;;;;;;;;6234767;28;20033;-72
2022/12/07 03:06:14;;;;;;;50.38;21.05;;;;;;;;;;6237812;28;20094;-72
2022/12/07 03:09:20;;;;;;;53.47;23.95;;;;;;;;;;6235823;28;20017;-73
2022/12/07 03:12:25;;;;;;;34.92;16.60;;;;;;;;;;6235541;28;20021;-72
2022/12/07 03:15:29;;;;;;;52.28;22.70;;;;;;;;;;6232868;28;20025;-73
2022/12/07 03:18:31;;;;;;;55.25;23.67;;;;;;;;;;6233572;28;20465;-72
2022/12/07 03:21:32;;;;;;;50.42;24.15;;;;;;;;;;6231138;28;20025;-73
2022/12/07 03:24:38;;;;;;;64.97;27.98;;;;;;;;;;6234706;28;20393;-72
2022/12/07 03:27:39;;;;;;;32.67;17.95;;;;;;;;;;6235302;28;20531;-72
2022/12/07 03:30:46;;;;;;;63.53;25.60;;;;;;;;;;6236958;28;20025;-73
2022/12/07 03:33:46;;;;;;;53.20;23.35;;;;;;;;;;6236035;28;20391;-72
2022/12/07 03:36:52;;;;;;;67.70;27.50;;;;;;;;;;6234056;28;20417;-72
2022/12/07 03:40:03;;;;;;;63.67;24.05;;;;;;;;;;6235142;28;20290;-73
2022/12/07 03:43:04;;;;;;;55.03;22.45;;;;;;;;;;6232440;28;20025;-73
2022/12/07 03:46:07;;;;;;;41.37;19.73;;;;;;;;;;6235026;28;20033;-73
2022/12/07 03:49:26;;;;;;;45.03;19.75;;;;;;;;;;6235028;28;20025;-74
2022/12/07 03:52:37;;;;;;;60.45;27.70;;;;;;;;;;6249670;28;20048;-73
2022/12/07 03:55:39;;;;;;;60.28;23.83;;;;;;;;;;6231978;28;20017;-74
2022/12/07 03:58:40;;;;;;;54.03;22.75;;;;;;;;;;6226188;28;20567;-73
2022/12/07 04:01:44;;;;;;;36.17;18.73;;;;;;;;;;6231547;28;20034;-73
2022/12/07 04:04:44;;;;;;;49.95;21.70;;;;;;;;;;6234600;28;20366;-73
2022/12/07 04:07:44;;;;;;;44.07;20.20;;;;;;;;;;6233504;28;20064;-72
2022/12/07 04:10:44;;;;;;;27.73;12.03;;;;;;;;;;6236592;28;20022;-73
2022/12/07 04:17:17;;;;;;;56.53;24.73;;;;;;;;;;6223361;28;20083;-73
2022/12/07 04:20:17;;;;;;;48.75;20.02;;;;;;;;;;6230675;28;20485;-72
2022/12/07 04:23:17;;;;;;;51.30;20.73;;;;;;;;;;6229143;28;20030;-73
2022/12/07 04:26:18;;;;;;;46.33;19.00;;;;;;;;;;6230239;28;20104;-73
2022/12/07 04:29:18;;;;;;;58.13;26.73;;;;;;;;;;6235999;28;20067;-73
2022/12/07 04:32:18;;;;;;;38.60;19.53;;;;;;;;;;6240506;28;20033;-72
2022/12/07 04:35:18;;;;;;;79.83;29.60;;;;;;;;;;6236755;28;20108;-74
2022/12/07 04:38:19;;;;;;;63.53;28.93;;;;;;;;;;6244897;28;20289;-73
2022/12/07 04:41:19;;;;;;;62.75;29.75;;;;;;;;;;6240865;28;20401;-73
2022/12/07 04:44:20;;;;;;;49.58;23.67;;;;;;;;;;6240501;28;20045;-74
2022/12/07 04:47:20;;;;;;;62.83;25.37;;;;;;;;;;6237850;28;20075;-73
2022/12/07 04:50:20;;;;;;;31.40;17.20;;;;;;;;;;6239805;28;20023;-73
2022/12/07 04:53:20;;;;;;;48.05;21.98;;;;;;;;;;6240687;28;20072;-74
2022/12/07 04:56:21;;;;;;;46.40;21.13;;;;;;;;;;6239680;28;20033;-73
2022/12/07 04:59:21;;;;;;;48.83;22.60;;;;;;;;;;6239139;28;20107;-73
2022/12/07 05:02:21;;;;;;;43.97;22.40;;;;;;;;;;6239945;28;20171;-73
2022/12/07 05:05:22;;;;;;;47.13;20.10;;;;;;;;;;6237114;28;20017;-73
2022/12/07 05:08:22;;;;;;;37.60;17.90;;;;;;;;;;6240503;28;20025;-74
2022/12/07 05:11:40;;;;;;;51.83;21.67;;;;;;;;;;6233716;28;20408;-74
2022/12/07 05:14:41;;;;;;;53.22;20.83;;;;;;;;;;6238488;28;20028;-74
2022/12/07 05:17:41;;;;;;;60.40;22.90;;;;;;;;;;6239204;28;20009;-74
2022/12/07 05:20:41;;;;;;;50.47;20.73;;;;;;;;;;6238850;28;20450;-75
2022/12/07 05:23:41;;;;;;;39.27;13.63;;;;;;;;;;6240538;28;20025;-74
2022/12/07 05:26:42;;;;;;;42.72;18.73;;;;;;;;;;6238492;28;20013;-73
2022/12/07 05:29:42;;;;;;;43.10;20.20;;;;;;;;;;6232936;28;20013;-73
2022/12/07 05:32:42;;;;;;;51.00;19.25;;;;;;;;;;6234627;28;20013;-73
2022/12/07 05:35:42;;;;;;;42.65;18.38;;;;;;;;;;6239743;28;20017;-73
2022/12/07 05:38:43;;;;;;;59.47;25.63;;;;;;;;;;6238218;28;20024;-73
2022/12/07 05:45:02;;;;;;;52.15;23.02;;;;;;;;;;6238171;28;20029;-73
2022/12/07 05:48:02;;;;;;;63.70;23.23;;;;;;;;;;6224595;28;20098;-73
2022/12/07 05:51:03;;;;;;;46.67;20.97;;;;;;;;;;6229429;28;20014;-73
2022/12/07 05:54:03;;;;;;;58.40;21.30;;;;;;;;;;6220366;28;20018;-73
2022/12/07 05:57:03;;;;;;;37.10;17.43;;;;;;;;;;6226076;28;20156;-72
2022/12/07 06:00:04;;;;;;;52.60;23.90;;;;;;;;;;6244524;28;20394;-73
2022/12/07 06:03:04;;;;;;;53.70;21.80;;;;;;;;;;6225963;28;20075;-73
2022/12/07 06:06:04;;;;;;;57.13;23.97;;;;;;;;;;6221837;28;20036;-73
2022/12/07 06:09:05;;;;;;;34.93;17.37;;;;;;;;;;6218376;28;20080;-73
2022/12/07 06:15:24;;;;;;;44.15;19.13;;;;;;;;;;6239208;28;20334;-73
2022/12/07 06:18:24;;;;;;;35.90;18.20;;;;;;;;;;6235577;28;20321;-73
2022/12/07 06:21:26;;;;;;;68.50;26.02;;;;;;;;;;6236857;28;20036;-73
2022/12/07 06:24:26;;;;;;;91.00;37.42;;;;;;;;;;6234188;28;20631;-73
2022/12/07 06:27:27;;;;;;;56.80;28.83;;;;;;;;;;6233314;28;20032;-72
2022/12/07 06:30:27;;;;;;;49.23;18.83;;;;;;;;;;6225789;28;20583;-73
2022/12/07 06:33:27;;;;;;;54.60;28.50;;;;;;;;;;6234633;28;20527;-73
2022/12/07 06:36:28;;;;;;;52.07;26.57;;;;;;;;;;6235466;28;20517;-73
2022/12/07 06:39:28;;;;;;;57.13;28.87;;;;;;;;;;6237486;28;20022;-73
2022/12/07 06:42:28;;;;;;;55.10;23.30;;;;;;;;;;6237173;28;20017;-73
2022/12/07 06:45:28;;;;;;;28.97;15.40;;;;;;;;;;6238184;28;20505;-73
2022/12/07 06:48:29;;;;;;;33.00;17.48;;;;;;;;;;6239185;28;20029;-73
2022/12/07 06:51:29;;;;;;;35.33;19.80;;;;;;;;;;6237951;28;20025;-73
2022/12/07 06:54:30;;;;;;;46.80;22.07;;;;;;;;;;6239841;28;20056;-72
2022/12/07 06:57:30;;;;;;;41.37;22.83;;;;;;;;;;6229734;28;20054;-72
2022/12/07 07:00:30;;;;;;;48.30;20.73;;;;;;;;;;6235454;28;20302;-73
2022/12/07 07:03:30;;;;;;;28.60;15.23;;;;;;;;;;6233910;28;20028;-74
2022/12/07 07:06:30;;;;;;;38.47;20.00;;;;;;;;;;6232186;28;20121;-73
2022/12/07 07:09:31;;;;;;;53.60;24.03;;;;;;;;;;6225923;28;20049;-73
2022/12/07 07:12:31;;;;;;;59.73;24.80;;;;;;;;;;6235907;28;20048;-73
2022/12/07 07:15:32;;;;;;;83.30;31.63;;;;;;;;;;6232696;28;20101;-73
2022/12/07 07:18:32;;;;;;;55.17;20.77;;;;;;;;;;6229214;28;20105;-75
2022/12/07 07:21:32;;;;;;;49.23;23.43;;;;;;;;;;6235333;28;20172;-73
2022/12/07 07:24:32;;;;;;;70.70;30.92;;;;;;;;;;6236548;28;20067;-73
2022/12/07 07:27:32;;;;;;;63.13;27.87;;;;;;;;;;6233600;28;20507;-74
2022/12/07 07:30:33;;;;;;;56.13;22.53;;;;;;;;;;6230155;28;20022;-73
2022/12/07 07:33:33;;;;;;;35.00;19.47;;;;;;;;;;6233046;28;20026;-74
2022/12/07 07:36:33;;;;;;;66.43;27.77;;;;;;;;;;6231085;28;20108;-73
2022/12/07 07:39:33;;;;;;;43.20;20.10;;;;;;;;;;6221960;28;20017;-74
2022/12/07 07:42:33;;;;;;;51.03;21.93;;;;;;;;;;6221994;28;20029;-73
2022/12/07 07:45:34;;;;;;;40.80;22.30;;;;;;;;;;6216562;28;20681;-74
2022/12/07 07:48:34;;;;;;;36.78;18.40;;;;;;;;;;6228885;28;20044;-74
2022/12/07 07:51:34;;;;;;;32.30;16.57;;;;;;;;;;6221525;28;20025;-73
2022/12/07 07:54:34;;;;;;;47.10;24.08;;;;;;;;;;6224355;28;20483;-73
2022/12/07 07:57:35;;;;;;;51.50;23.23;;;;;;;;;;6228468;28;20322;-74
2022/12/07 08:00:35;;;;;;;56.70;26.77;;;;;;;;;;6226483;28;20453;-74
2022/12/07 08:03:36;;;;;;;59.83;27.42;;;;;;;;;;6227274;28;20141;-74
2022/12/07 08:06:36;;;;;;;48.00;24.52;;;;;;;;;;6222217;28;20022;-74
2022/12/07 08:09:36;;;;;;;63.73;26.30;;;;;;;;;;6224404;28;20507;-73
2022/12/07 08:13:10;;;;;;;53.33;24.88;;;;;;;;;;6228936;28;20017;-74
2022/12/07 08:15:58;;;;;;;44.10;23.30;;;;;;;;;;6232578;28;20379;-73
2022/12/07 08:18:58;;;;;;;56.87;25.27;;;;;;;;;;6226559;28;20037;-74
2022/12/07 08:21:58;;;;;;;53.53;26.77;;;;;;;;;;6232764;28;20440;-73
2022/12/07 08:24:58;;;;;;;45.33;25.90;;;;;;;;;;6227054;28;20018;-74
2022/12/07 08:28:00;;;;;;;37.35;21.20;;;;;;;;;;6234157;28;20115;-74
2022/12/07 08:31:05;;;;;;;39.60;20.80;;;;;;;;;;6232434;28;20495;-74
2022/12/07 08:34:05;;;;;;;55.10;26.30;;;;;;;;;;6223713;28;20072;-74
2022/12/07 08:37:05;;;;;;;38.27;21.07;;;;;;;;;;6223924;28;20060;-75
2022/12/07 08:40:06;;;;;;;38.38;20.88;;;;;;;;;;6223164;28;20032;-73
2022/12/07 08:43:07;;;;;;;51.47;24.98;;;;;;;;;;6228385;28;21317;-73
2022/12/07 08:46:10;;;;;;;57.43;27.00;;;;;;;;;;6236166;28;20104;-73
2022/12/07 08:49:15;;;;;;;41.47;23.75;;;;;;;;;;6237560;28;20013;-73
2022/12/07 08:52:16;;;;;;;57.10;28.02;;;;;;;;;;6242803;28;20105;-74
2022/12/07 08:55:16;;;;;;;60.10;28.47;;;;;;;;;;6239165;28;20215;-74
2022/12/07 08:58:16;;;;;;;41.23;22.33;;;;;;;;;;6230778;28;20249;-74
2022/12/07 09:01:16;;;;;;;45.50;24.90;;;;;;;;;;6242409;28;20018;-75
2022/12/07 09:04:17;;;;;;;45.10;22.40;;;;;;;;;;6241881;28;20079;-74
2022/12/07 09:07:17;;;;;;;56.75;23.10;;;;;;;;;;6234608;28;20389;-74
2022/12/07 09:10:17;;;;;;;40.00;18.80;;;;;;;;;;6230275;28;20025;-74
2022/12/07 09:13:18;;;;;;;53.20;21.07;;;;;;;;;;6237000;28;20065;-74
2022/12/07 09:16:18;;;;;;;49.23;22.27;;;;;;;;;;6237565;28;20037;-74
2022/12/07 09:19:18;;;;;;;53.50;22.48;;;;;;;;;;6232152;28;20357;-74
2022/12/07 09:22:18;;;;;;;32.17;18.17;;;;;;;;;;6236592;28;20639;-73
2022/12/07 09:25:18;;;;;;;46.67;21.33;;;;;;;;;;6231953;28;20450;-73
2022/12/07 09:28:19;;;;;;;50.57;25.20;;;;;;;;;;6230222;28;20022;-73
2022/12/07 09:31:19;;;;;;;44.92;24.17;;;;;;;;;;6224322;28;20056;-73
2022/12/07 09:34:19;;;;;;;65.15;31.80;;;;;;;;;;6246955;28;20649;-73
2022/12/07 09:37:20;;;;;;;51.73;25.10;;;;;;;;;;6234453;28;20045;-74
2022/12/07 09:40:21;;;;;;;51.63;27.40;;;;;;;;;;6235594;28;20021;-73
2022/12/07 09:43:23;;;;;;;50.22;27.33;;;;;;;;;;6237384;28;20036;-73
2022/12/07 09:46:23;;;;;;;47.85;23.83;;;;;;;;;;6234967;28;20517;-74
2022/12/07 09:49:25;;;;;;;47.33;24.07;;;;;;;;;;6238311;28;20028;-73
2022/12/07 09:52:26;;;;;;;43.03;21.17;;;;;;;;;;6235696;28;20029;-73
2022/12/07 09:55:28;;;;;;;50.10;24.17;;;;;;;;;;6229106;28;20041;-72
2022/12/07 09:58:29;;;;;;;47.90;23.80;;;;;;;;;;6233886;28;20499;-72
2022/12/07 10:01:31;;;;;;;73.75;28.70;;;;;;;;;;6231216;28;20536;-73
2022/12/07 10:04:31;;;;;;;54.90;24.27;;;;;;;;;;6233571;28;20033;-73
2022/12/07 10:07:31;;;;;;;53.35;26.77;;;;;;;;;;6226847;28;20462;-73
2022/12/07 10:10:33;;;;;;;33.97;18.30;;;;;;;;;;6232345;28;20033;-73
2022/12/07 10:13:37;;;;;;;31.40;16.75;;;;;;;;;;6237134;28;20025;-73
2022/12/07 10:16:39;;;;;;;52.30;25.10;;;;;;;;;;6226020;28;20029;-72
2022/12/07 10:19:39;;;;;;;39.53;20.45;;;;;;;;;;6234102;28;20029;-73
2022/12/07 10:22:53;;;;;;;63.63;27.77;;;;;;;;;;6230499;28;20048;-72
2022/12/07 10:25:54;;;;;;;61.25;26.40;;;;;;;;;;6235143;28;20009;-73
2022/12/07 10:28:55;;;;;;;55.35;29.85;;;;;;;;;;6234359;28;20021;-73
2022/12/07 10:31:57;;;;;;;53.87;28.03;;;;;;;;;;6226567;28;20025;-72
2022/12/07 10:35:16;;;;;;;51.97;28.95;;;;;;;;;;6231236;28;20257;-72
2022/12/07 10:38:16;;;;;;;43.72;23.23;;;;;;;;;;6236473;28;20072;-72
2022/12/07 10:41:17;;;;;;;50.80;26.83;;;;;;;;;;6232898;28;20022;-72
2022/12/07 10:44:21;;;;;;;55.23;30.00;;;;;;;;;;6224789;28;20448;-72
2022/12/07 10:47:39;;;;;;;69.22;35.78;;;;;;;;;;6237822;28;20029;-73
2022/12/07 10:50:57;;;;;;;62.95;32.90;;;;;;;;;;6225318;28;20025;-72
2022/12/07 10:54:07;;;;;;;55.05;26.83;;;;;;;;;;6220015;28;20504;-72
2022/12/07 10:57:11;;;;;;;45.60;25.15;;;;;;;;;;6229253;28;20533;-72
2022/12/07 11:00:31;;;;;;;49.20;24.23;;;;;;;;;;6228226;28;20544;-72
2022/12/07 11:03:43;;;;;;;49.92;27.02;;;;;;;;;;6227122;28;20017;-72
2022/12/07 11:06:51;;;;;;;51.53;24.33;;;;;;;;;;6234502;28;20052;-72
2022/12/07 11:09:57;;;;;;;62.97;26.83;;;;;;;;;;6229607;28;20045;-72
2022/12/07 11:13:07;;;;;;;55.05;25.02;;;;;;;;;;6221540;28;20144;-72
2022/12/07 11:16:24;;;;;;;89.20;31.42;;;;;;;;;;6236426;28;20218;-72
2022/12/07 11:19:29;;;;;;;411.08;66.75;;;;;;;;;;6235665;28;20021;-72
2022/12/07 11:22:45;;;;;;;841.70;116.88;;;;;;;;;;6231088;28;20291;-73
2022/12/07 11:25:45;;;;;;;595.53;75.10;;;;;;;;;;6216067;28;20540;-72
2022/12/07 11:29:04;;;;;;;1655.55;149.45;;;;;;;;;;6225950;28;20485;-72
2022/12/07 11:32:06;;;;;;;1211.95;138.93;;;;;;;;;;6235574;28;20059;-72
2022/12/07 11:35:25;;;;;;;244.57;31.33;;;;;;;;;;6236002;28;20508;-72
2022/12/07 11:38:41;;;;;;;992.00;112.30;;;;;;;;;;6239641;28;20025;-72
2022/12/07 11:41:41;;;;;;;1314.40;138.32;;;;;;;;;;6228476;28;20529;-72
2022/12/07 11:44:51;;;;;;;1999.90;296.40;;;;;;;;;;6226408;28;20041;-73
2022/12/07 11:47:51;;;;;;;1094.88;221.50;;;;;;;;;;6233407;28;20067;-72
2022/12/07 11:50:54;;;;;;;53.60;27.65;;;;;;;;;;6235352;28;20049;-72
2022/12/07 11:53:59;;;;;;;47.10;23.73;;;;;;;;;;6236820;28;20037;-72
2022/12/07 11:57:03;;;;;;;37.30;21.55;;;;;;;;;;6237282;28;20451;-72
2022/12/07 12:00:05;;;;;;;38.42;21.23;;;;;;;;;;6233483;28;20186;-72
2022/12/07 12:03:15;;;;;;;31.27;19.17;;;;;;;;;;6235353;28;20497;-73
2022/12/07 12:06:15;;;;;;;21.20;10.40;;;;;;;;;;6232805;28;20053;-72
2022/12/07 12:09:16;;;;;;;34.33;18.70;;;;;;;;;;6234652;28;20440;-72
2022/12/07 12:12:17;;;;;;;30.67;19.73;;;;;;;;;;6236167;28;20029;-73
2022/12/07 12:15:26;;;;;;;39.55;21.48;;;;;;;;;;6228380;28;20026;-72
2022/12/07 12:18:26;;;;;;;29.60;17.40;;;;;;;;;;6232226;28;20494;-72
2022/12/07 12:21:28;;;;;;;31.00;17.07;;;;;;;;;;6224509;28;20028;-72
2022/12/07 12:24:28;;;;;;;;;;;;;;;;;;6222871;28;20029;-73
2022/12/07 12:27:33;;;;;;;30.67;18.30;;;;;;;;;;6227640;28;19938;-72
2022/12/07 12:30:35;;;;;;;26.13;16.20;;;;;;;;;;6231537;28;20052;-73
2022/12/07 12:33:36;;;;;;;23.90;15.20;;;;;;;;;;6236239;28;20036;-72
2022/12/07 12:36:47;;;;;;;24.03;14.87;;;;;;;;;;6237672;28;20021;-73
2022/12/07 12:40:05;;;;;;;21.75;10.98;;;;;;;;;;6231149;28;20021;-73
2022/12/07 12:43:25;;;;;;;25.27;16.85;;;;;;;;;;6236442;28;20028;-72
2022/12/07 12:46:29;;;;;;;18.40;9.27;;;;;;;;;;6225467;28;20029;-73
2022/12/07 12:49:29;;;;;;;26.30;14.07;;;;;;;;;;6225453;28;20033;-72
2022/12/07 12:52:29;;;;;;;33.45;17.20;;;;;;;;;;6240482;28;20040;-72
2022/12/07 12:55:45;;;;;;;25.42;15.50;;;;;;;;;;6240715;28;20072;-72
2022/12/07 12:58:47;;;;;;;28.40;15.95;;;;;;;;;;6224819;28;20056;-73
2022/12/07 13:01:48;;;;;;;30.73;17.05;;;;;;;;;;6235640;28;20037;-72
2022/12/07 13:04:54;;;;;;;22.10;15.33;;;;;;;;;;6230012;28;20025;-72
2022/12/07 13:07:58;;;;;;;27.83;15.00;;;;;;;;;;6239088;28;20780;-72
2022/12/07 13:11:17;;;;;;;28.15;14.55;;;;;;;;;;6230004;28;20448;-73
2022/12/07 13:14:36;;;;;;;27.77;16.15;;;;;;;;;;6237015;28;20088;-73
2022/12/07 13:17:36;;;;;;;27.08;15.05;;;;;;;;;;6236918;28;20017;-72
2022/12/07 13:20:40;;;;;;;21.15;12.60;;;;;;;;;;6229743;28;20029;-73
2022/12/07 13:23:44;;;;;;;18.98;13.27;;;;;;;;;;6232272;28;20469;-73
2022/12/07 13:26:44;;;;;;;20.77;13.18;;;;;;;;;;6225933;28;20108;-72
2022/12/07 13:29:46;;;;;;;26.30;14.53;;;;;;;;;;6233100;28;20378;-72
2022/12/07 13:32:57;;;;;;;19.08;10.38;;;;;;;;;;6227732;28;20032;-72
2022/12/07 13:36:00;;;;;;;30.80;16.73;;;;;;;;;;6239813;28;20040;-73
2022/12/07 13:39:10;;;;;;;21.65;14.07;;;;;;;;;;6244127;28;20476;-73
2022/12/07 13:42:19;;;;;;;29.55;19.02;;;;;;;;;;6231125;28;20033;-73
2022/12/07 13:48:47;;;;;;;49.10;24.15;;;;;;;;;;6239728;28;20041;-72
2022/12/07 13:51:48;;;;;;;39.60;19.92;;;;;;;;;;6240971;28;20444;-73
2022/12/07 13:54:49;;;;;;;34.13;17.63;;;;;;;;;;6222558;28;20033;-73
2022/12/07 13:57:51;;;;;;;29.80;17.38;;;;;;;;;;6216810;28;20099;-73
2022/12/07 14:00:51;;;;;;;34.40;17.33;;;;;;;;;;6230185;28;20139;-73
2022/12/07 14:03:51;;;;;;;26.77;15.50;;;;;;;;;;6237931;28;20090;-73
2022/12/07 14:06:52;;;;;;;28.67;16.40;;;;;;;;;;6228492;28;20317;-73
2022/12/07 14:09:55;;;;;;;19.37;10.93;;;;;;;;;;6230013;28;20025;-74
2022/12/07 14:12:56;;;;;;;31.13;16.98;;;;;;;;;;6229474;28;20020;-73
2022/12/07 14:15:58;;;;;;;31.30;14.80;;;;;;;;;;6228868;28;20025;-74
2022/12/07 14:18:59;;;;;;;31.75;18.45;;;;;;;;;;6228848;28;20033;-73
2022/12/07 14:22:06;;;;;;;25.42;15.27;;;;;;;;;;6228384;28;20026;-73
2022/12/07 14:25:41;;;;;;;23.23;13.85;;;;;;;;;;6232456;28;20152;-73
2022/12/07 14:28:43;;;;;;;34.75;18.80;;;;;;;;;;6187581;28;20021;-73
2022/12/07 14:31:43;;;;;;;32.63;13.73;;;;;;;;;;6230404;28;20010;-73
2022/12/07 14:34:52;;;;;;;35.30;20.20;;;;;;;;;;6229974;28;20415;-72
2022/12/07 14:37:53;;;;;;;36.85;20.23;;;;;;;;;;6232353;28;20041;-73
2022/12/07 14:40:53;;;;;;;30.57;16.27;;;;;;;;;;6231567;28;20026;-72
2022/12/07 14:43:53;;;;;;;30.00;17.63;;;;;;;;;;6230237;28;20144;-71
2022/12/07 14:46:54;;;;;;;15.73;10.02;;;;;;;;;;6232832;28;20017;-72
2022/12/07 14:49:54;;;;;;;31.73;17.63;;;;;;;;;;6236220;28;20006;-73
2022/12/07 14:52:55;;;;;;;23.67;14.20;;;;;;;;;;6238910;28;20018;-72
2022/12/07 14:55:56;;;;;;;31.00;12.27;;;;;;;;;;6237157;28;20465;-72
2022/12/07 14:58:56;;;;;;;22.10;11.93;;;;;;;;;;6234938;28;20053;-72
2022/12/07 15:01:56;;;;;;;28.10;9.93;;;;;;;;;;6233265;28;20493;-73
2022/12/07 15:04:56;;;;;;;29.33;14.43;;;;;;;;;;6237087;28;20540;-73
2022/12/07 15:07:57;;;;;;;33.88;16.00;;;;;;;;;;6237076;28;20017;-73
2022/12/07 15:10:57;;;;;;;30.33;16.63;;;;;;;;;;6235270;28;20402;-73
2022/12/07 15:14:10;;;;;;;26.93;14.70;;;;;;;;;;6227815;28;20481;-73
2022/12/07 15:17:12;;;;;;;31.95;17.92;;;;;;;;;;6232195;28;20097;-73
2022/12/07 15:20:13;;;;;;;29.58;18.38;;;;;;;;;;6222968;28;20041;-74
2022/12/07 15:23:14;;;;;;;36.90;16.67;;;;;;;;;;6222577;28;20068;-74
2022/12/07 15:26:14;;;;;;;22.83;15.97;;;;;;;;;;6226717;28;20013;-74
2022/12/07 15:29:15;;;;;;;37.00;21.50;;;;;;;;;;6218398;28;20434;-73
2022/12/07 15:32:16;;;;;;;33.22;18.90;;;;;;;;;;6233969;28;20311;-74
2022/12/07 15:35:16;;;;;;;28.00;16.67;;;;;;;;;;6223374;28;20037;-73
2022/12/07 15:38:16;;;;;;;35.77;19.70;;;;;;;;;;6238285;28;20060;-73
2022/12/07 15:41:17;;;;;;;30.43;17.67;;;;;;;;;;6238192;28;20029;-73
2022/12/07 15:47:41;;;;;;;47.67;22.77;;;;;;;;;;6235804;28;20033;-73
2022/12/07 15:50:41;;;;;;;39.03;20.00;;;;;;;;;;6230666;28;20112;-74
2022/12/07 15:53:41;;;;;;;60.53;27.53;;;;;;;;;;6234741;28;20029;-74
2022/12/07 15:56:41;;;;;;;40.73;20.70;;;;;;;;;;6235351;28;20029;-74
2022/12/07 15:59:41;;;;;;;55.03;23.83;;;;;;;;;;6234936;28;20525;-73
2022/12/07 16:02:42;;;;;;;61.77;29.57;;;;;;;;;;6219782;28;20034;-74
2022/12/07 16:05:48;;;;;;;35.10;19.40;;;;;;;;;;6230694;28;20064;-73
2022/12/07 16:08:48;;;;;;;45.40;24.75;;;;;;;;;;6231843;28;20021;-74
2022/12/07 16:11:50;;;;;;;30.37;15.47;;;;;;;;;;6235670;28;20006;-75
2022/12/07 16:14:50;;;;;;;37.38;20.58;;;;;;;;;;6236089;28;20029;-75
2022/12/07 16:17:50;;;;;;;35.50;20.60;;;;;;;;;;6234636;28;20036;-73
2022/12/07 16:20:51;;;;;;;32.47;16.30;;;;;;;;;;6229328;28;20485;-74
2022/12/07 16:23:51;;;;;;;35.83;18.30;;;;;;;;;;6223776;28;20057;-73
2022/12/07 16:26:51;;;;;;;34.57;19.17;;;;;;;;;;6240198;28;20067;-74
2022/12/07 16:29:52;;;;;;;32.60;19.43;;;;;;;;;;6239696;28;20017;-73
2022/12/07 16:32:52;;;;;;;36.67;20.63;;;;;;;;;;6234991;28;20025;-74
2022/12/07 16:35:52;;;;;;;36.00;17.88;;;;;;;;;;6229168;28;20414;-73
2022/12/07 16:38:52;;;;;;;39.20;21.17;;;;;;;;;;6231857;28;20017;-73
2022/12/07 16:41:53;;;;;;;43.47;20.60;;;;;;;;;;6223169;28;20028;-73
2022/12/07 16:44:53;;;;;;;31.77;16.27;;;;;;;;;;6226551;28;20524;-74
2022/12/07 16:47:53;;;;;;;27.80;16.60;;;;;;;;;;6234201;28;20462;-73
2022/12/07 16:50:53;;;;;;;31.67;17.67;;;;;;;;;;6238992;28;20053;-73
2022/12/07 16:53:54;;;;;;;50.53;25.57;;;;;;;;;;6239715;28;20022;-74
2022/12/07 16:56:54;;;;;;;48.97;26.63;;;;;;;;;;6238882;28;20049;-74
2022/12/07 16:59:54;;;;;;;58.43;28.47;;;;;;;;;;6237378;28;20385;-73
2022/12/07 17:02:55;;;;;;;51.10;27.92;;;;;;;;;;6239632;28;20031;-73
2022/12/07 17:05:55;;;;;;;52.10;26.07;;;;;;;;;;6239759;28;20009;-75
2022/12/07 17:08:56;;;;;;;67.47;31.20;;;;;;;;;;6237196;28;20017;-74
2022/12/07 17:11:56;;;;;;;55.67;30.77;;;;;;;;;;6239779;28;20148;-74
2022/12/07 17:18:18;;;;;;;63.80;33.42;;;;;;;;;;6236608;28;20030;-75
2022/12/07 17:21:18;;;;;;;63.50;36.20;;;;;;;;;;6243525;28;20013;-74
2022/12/07 17:24:18;;;;;;;63.43;32.00;;;;;;;;;;6240650;28;20116;-74
2022/12/07 17:27:19;;;;;;;52.13;28.80;;;;;;;;;;6224140;28;20199;-75
2022/12/07 17:30:19;;;;;;;48.93;26.03;;;;;;;;;;6228476;28;20029;-75
2022/12/07 17:33:20;;;;;;;41.27;23.37;;;;;;;;;;6227985;28;20021;-74
2022/12/07 17:36:22;;;;;;;54.53;29.63;;;;;;;;;;6232019;28;20516;-74
2022/12/07 17:39:23;;;;;;;65.72;32.53;;;;;;;;;;6232903;28;20501;-75
2022/12/07 17:42:35;;;;;;;70.07;37.20;;;;;;;;;;6235184;28;20025;-75
2022/12/07 17:45:36;;;;;;;71.25;37.83;;;;;;;;;;6234552;28;20009;-74
2022/12/07 17:48:37;;;;;;;62.13;32.07;;;;;;;;;;6231427;28;20029;-74
2022/12/07 17:54:56;;;;;;;63.00;31.13;;;;;;;;;;6233895;28;20029;-74
2022/12/07 17:57:56;;;;;;;65.30;35.53;;;;;;;;;;6224231;28;20056;-74
2022/12/07 18:00:56;;;;;;;62.03;32.27;;;;;;;;;;6230926;28;20032;-74
2022/12/07 18:03:56;;;;;;;56.87;28.93;;;;;;;;;;6236739;28;20428;-75
2022/12/07 18:06:57;;;;;;;52.53;27.67;;;;;;;;;;6235677;28;20064;-75